sensor_id;sensor_type;location;lat;lon;timestamp;pressure;altitude;pressure_sealevel;temperature;humidity
13593;BME280;6867;50.998;4.250;2023-06-22T00:02:15;101601.66;;;20.62;74.40
13593;BME280;6867;50.998;4.250;2023-06-22T00:04:42;101610.59;;;20.57;74.36
13593;BME280;6867;50.998;4.250;2023-06-22T00:07:09;101606.47;;;20.55;74.65
13593;BME280;6867;50.998;4.250;2023-06-22T00:09:36;101613.16;;;20.47;75.21
13593;BME280;6867;50.998;4.250;2023-06-22T00:12:03;101629.91;;;20.34;75.89
13593;BME280;6867;50.998;4.250;2023-06-22T00:14:30;101636.22;;;20.18;76.63
13593;BME280;6867;50.998;4.250;2023-06-22T00:16:58;101633.06;;;20.26;77.15
13593;BME280;6867;50.998;4.250;2023-06-22T00:19:25;101622.09;;;20.21;76.85
13593;BME280;6867;50.998;4.250;2023-06-22T00:21:52;101629.28;;;20.10;77.08
13593;BME280;6867;50.998;4.250;2023-06-22T00:24:19;101618.31;;;20.05;77.54
13593;BME280;6867;50.998;4.250;2023-06-22T00:26:45;101613.78;;;19.94;78.01
13593;BME280;6867;50.998;4.250;2023-06-22T00:29:12;101604.22;;;19.91;77.94
13593;BME280;6867;50.998;4.250;2023-06-22T00:31:39;101600.56;;;19.85;78.50
13593;BME280;6867;50.998;4.250;2023-06-22T00:34:08;101590.81;;;19.89;78.63
13593;BME280;6867;50.998;4.250;2023-06-22T00:36:34;101601.09;;;19.82;79.21
13593;BME280;6867;50.998;4.250;2023-06-22T00:39:01;101590.19;;;19.82;79.09
13593;BME280;6867;50.998;4.250;2023-06-22T00:41:28;101586.78;;;19.75;78.85
13593;BME280;6867;50.998;4.250;2023-06-22T00:43:55;101586.13;;;19.68;79.32
13593;BME280;6867;50.998;4.250;2023-06-22T00:46:22;101591.91;;;19.72;79.22
13593;BME280;6867;50.998;4.250;2023-06-22T00:48:50;101586.38;;;19.83;79.01
13593;BME280;6867;50.998;4.250;2023-06-22T00:51:19;101584.47;;;19.84;78.72
13593;BME280;6867;50.998;4.250;2023-06-22T00:53:49;101589.34;;;19.82;78.82
13593;BME280;6867;50.998;4.250;2023-06-22T00:56:16;101587.44;;;19.82;79.08
13593;BME280;6867;50.998;4.250;2023-06-22T00:58:45;101587.94;;;19.79;78.93
13593;BME280;6867;50.998;4.250;2023-06-22T01:01:12;101602.47;;;19.85;79.02
13593;BME280;6867;50.998;4.250;2023-06-22T01:03:39;101599.94;;;19.78;79.18
13593;BME280;6867;50.998;4.250;2023-06-22T01:06:09;101604.84;;;19.81;79.48
13593;BME280;6867;50.998;4.250;2023-06-22T01:08:42;101587.94;;;19.79;79.32
13593;BME280;6867;50.998;4.250;2023-06-22T01:11:17;101587.38;;;19.77;79.27
13593;BME280;6867;50.998;4.250;2023-06-22T01:13:50;101588.09;;;19.73;79.54
13593;BME280;6867;50.998;4.250;2023-06-22T01:16:22;101601.56;;;19.79;79.65
13593;BME280;6867;50.998;4.250;2023-06-22T01:18:53;101594.22;;;19.80;79.60
13593;BME280;6867;50.998;4.250;2023-06-22T01:21:22;101595.13;;;19.69;79.59
13593;BME280;6867;50.998;4.250;2023-06-22T01:24:06;101598.19;;;19.72;79.75
13593;BME280;6867;50.998;4.250;2023-06-22T01:26:39;101592.50;;;19.74;79.56
13593;BME280;6867;50.998;4.250;2023-06-22T01:29:11;101592.50;;;19.74;79.56
13593;BME280;6867;50.998;4.250;2023-06-22T01:31:40;101601.56;;;19.79;79.75
13593;BME280;6867;50.998;4.250;2023-06-22T01:34:08;101596.25;;;19.89;79.45
13593;BME280;6867;50.998;4.250;2023-06-22T01:36:36;101598.88;;;20.01;79.34
13593;BME280;6867;50.998;4.250;2023-06-22T01:39:05;101588.38;;;20.10;79.02
13593;BME280;6867;50.998;4.250;2023-06-22T01:41:34;101579.38;;;20.09;78.87
13593;BME280;6867;50.998;4.250;2023-06-22T01:44:02;101573.97;;;20.14;79.17
13593;BME280;6867;50.998;4.250;2023-06-22T01:46:32;101582.53;;;20.01;79.51
13593;BME280;6867;50.998;4.250;2023-06-22T01:48:59;101587.97;;;20.01;79.56
13593;BME280;6867;50.998;4.250;2023-06-22T01:51:26;101581.16;;;19.99;79.47
13593;BME280;6867;50.998;4.250;2023-06-22T01:53:52;101591.31;;;19.86;80.03
13593;BME280;6867;50.998;4.250;2023-06-22T01:56:19;101590.72;;;19.84;79.69
13593;BME280;6867;50.998;4.250;2023-06-22T01:58:50;101591.97;;;19.77;80.01
13593;BME280;6867;50.998;4.250;2023-06-22T02:01:25;101588.44;;;19.76;79.68
13593;BME280;6867;50.998;4.250;2023-06-22T02:04:02;101581.81;;;19.72;79.57
13593;BME280;6867;50.998;4.250;2023-06-22T02:06:33;101575.47;;;19.67;79.77
13593;BME280;6867;50.998;4.250;2023-06-22T02:09:07;101573.84;;;19.65;79.67
13593;BME280;6867;50.998;4.250;2023-06-22T02:11:36;101575.03;;;19.58;79.80
13593;BME280;6867;50.998;4.250;2023-06-22T02:14:04;101585.59;;;19.54;80.35
13593;BME280;6867;50.998;4.250;2023-06-22T02:16:32;101577.16;;;19.56;80.57
13593;BME280;6867;50.998;4.250;2023-06-22T02:19:01;101575.78;;;19.53;80.17
13593;BME280;6867;50.998;4.250;2023-06-22T02:21:29;101571.56;;;19.46;80.54
13593;BME280;6867;50.998;4.250;2023-06-22T02:23:56;101572.72;;;19.33;81.26
13593;BME280;6867;50.998;4.250;2023-06-22T02:26:23;101572.38;;;19.29;81.16
13593;BME280;6867;50.998;4.250;2023-06-22T02:28:51;101572.63;;;19.28;81.47
13593;BME280;6867;50.998;4.250;2023-06-22T02:31:18;101568.50;;;19.25;82.54
13593;BME280;6867;50.998;4.250;2023-06-22T02:33:45;101568.16;;;19.22;82.48
13593;BME280;6867;50.998;4.250;2023-06-22T02:36:13;101566.94;;;19.29;82.39
13593;BME280;6867;50.998;4.250;2023-06-22T02:38:41;101563.88;;;19.26;82.67
13593;BME280;6867;50.998;4.250;2023-06-22T02:41:11;101555.97;;;19.24;82.41
13593;BME280;6867;50.998;4.250;2023-06-22T02:43:38;101543.41;;;19.23;82.24
13593;BME280;6867;50.998;4.250;2023-06-22T02:46:05;101537.72;;;19.25;82.19
13593;BME280;6867;50.998;4.250;2023-06-22T02:48:31;101546.53;;;19.15;82.14
13593;BME280;6867;50.998;4.250;2023-06-22T02:50:58;101552.00;;;19.15;82.39
13593;BME280;6867;50.998;4.250;2023-06-22T02:53:26;101548.94;;;19.11;82.36
13593;BME280;6867;50.998;4.250;2023-06-22T02:55:53;101551.78;;;19.05;82.69
13593;BME280;6867;50.998;4.250;2023-06-22T02:58:19;101536.88;;;19.07;82.71
13593;BME280;6867;50.998;4.250;2023-06-22T03:00:46;101534.50;;;19.11;82.53
13593;BME280;6867;50.998;4.250;2023-06-22T03:03:13;101525.97;;;19.07;82.56
13593;BME280;6867;50.998;4.250;2023-06-22T03:05:40;101533.81;;;19.04;82.53
13593;BME280;6867;50.998;4.250;2023-06-22T03:08:06;101531.66;;;19.06;82.49
13593;BME280;6867;50.998;4.250;2023-06-22T03:10:34;101524.91;;;19.08;82.75
13593;BME280;6867;50.998;4.250;2023-06-22T03:13:01;101526.38;;;18.99;82.97
13593;BME280;6867;50.998;4.250;2023-06-22T03:15:28;101524.34;;;19.06;82.97
13593;BME280;6867;50.998;4.250;2023-06-22T03:17:56;101520.19;;;19.04;82.44
13593;BME280;6867;50.998;4.250;2023-06-22T03:20:23;101525.91;;;19.02;82.78
13593;BME280;6867;50.998;4.250;2023-06-22T03:22:52;101529.44;;;19.03;83.00
13593;BME280;6867;50.998;4.250;2023-06-22T03:25:19;101527.22;;;19.00;83.22
13593;BME280;6867;50.998;4.250;2023-06-22T03:27:47;101524.16;;;19.13;82.74
13593;BME280;6867;50.998;4.250;2023-06-22T03:30:14;101528.53;;;19.14;82.54
13593;BME280;6867;50.998;4.250;2023-06-22T03:32:41;101514.69;;;19.15;82.14
13593;BME280;6867;50.998;4.250;2023-06-22T03:35:09;101511.38;;;19.13;82.04
13593;BME280;6867;50.998;4.250;2023-06-22T03:37:39;101513.88;;;19.15;82.03
13593;BME280;6867;50.998;4.250;2023-06-22T03:40:07;101519.38;;;19.03;82.25
13593;BME280;6867;50.998;4.250;2023-06-22T03:42:34;101517.13;;;19.00;82.36
13593;BME280;6867;50.998;4.250;2023-06-22T03:45:03;101522.44;;;19.07;82.24
13593;BME280;6867;50.998;4.250;2023-06-22T03:47:30;101519.28;;;18.98;82.33
13593;BME280;6867;50.998;4.250;2023-06-22T03:49:57;101521.16;;;18.98;82.50
13593;BME280;6867;50.998;4.250;2023-06-22T03:52:23;101515.09;;;19.07;82.31
13593;BME280;6867;50.998;4.250;2023-06-22T03:54:50;101513.53;;;19.11;81.89
13593;BME280;6867;50.998;4.250;2023-06-22T03:57:17;101517.97;;;19.17;81.65
13593;BME280;6867;50.998;4.250;2023-06-22T03:59:44;101528.47;;;19.26;81.79
13593;BME280;6867;50.998;4.250;2023-06-22T04:02:12;101514.91;;;19.31;81.31
13593;BME280;6867;50.998;4.250;2023-06-22T04:04:38;101518.50;;;19.31;80.94
13593;BME280;6867;50.998;4.250;2023-06-22T04:07:05;101517.16;;;19.34;80.72
13593;BME280;6867;50.998;4.250;2023-06-22T04:09:32;101512.03;;;19.37;80.68
13593;BME280;6867;50.998;4.250;2023-06-22T04:11:58;101515.16;;;19.46;80.44
13593;BME280;6867;50.998;4.250;2023-06-22T04:14:25;101510.19;;;19.60;80.11
13593;BME280;6867;50.998;4.250;2023-06-22T04:16:52;101513.28;;;19.63;79.68
13593;BME280;6867;50.998;4.250;2023-06-22T04:19:20;101510.81;;;19.62;79.24
13593;BME280;6867;50.998;4.250;2023-06-22T04:21:47;101524.09;;;19.75;78.99
13593;BME280;6867;50.998;4.250;2023-06-22T04:24:13;101523.94;;;19.82;78.88
13593;BME280;6867;50.998;4.250;2023-06-22T04:26:40;101527.53;;;19.87;78.26
13593;BME280;6867;50.998;4.250;2023-06-22T04:29:07;101526.38;;;19.83;77.82
13593;BME280;6867;50.998;4.250;2023-06-22T04:31:35;101535.22;;;19.90;78.10
13593;BME280;6867;50.998;4.250;2023-06-22T04:34:02;101541.34;;;20.20;77.93
13593;BME280;6867;50.998;4.250;2023-06-22T04:36:34;101528.19;;;20.38;76.87
13593;BME280;6867;50.998;4.250;2023-06-22T04:39:06;101517.72;;;20.52;76.29
13593;BME280;6867;50.998;4.250;2023-06-22T04:41:35;101514.44;;;20.77;75.41
13593;BME280;6867;50.998;4.250;2023-06-22T04:44:09;101510.50;;;20.90;74.77
13593;BME280;6867;50.998;4.250;2023-06-22T04:46:36;101503.34;;;20.84;74.04
13593;BME280;6867;50.998;4.250;2023-06-22T04:49:05;101492.88;;;21.03;73.52
13593;BME280;6867;50.998;4.250;2023-06-22T04:51:38;101495.88;;;21.33;73.00
13593;BME280;6867;50.998;4.250;2023-06-22T04:54:05;101499.25;;;21.46;72.26
13593;BME280;6867;50.998;4.250;2023-06-22T04:56:31;101498.16;;;21.47;71.73
13593;BME280;6867;50.998;4.250;2023-06-22T04:58:58;101491.41;;;21.64;70.82
13593;BME280;6867;50.998;4.250;2023-06-22T05:01:25;101497.75;;;21.70;70.47
13593;BME280;6867;50.998;4.250;2023-06-22T05:03:52;101499.41;;;21.76;70.29
13593;BME280;6867;50.998;4.250;2023-06-22T05:06:21;101493.44;;;21.79;69.99
13593;BME280;6867;50.998;4.250;2023-06-22T05:08:51;101512.16;;;21.60;70.82
13593;BME280;6867;50.998;4.250;2023-06-22T05:11:17;101513.28;;;21.64;70.87
13593;BME280;6867;50.998;4.250;2023-06-22T05:13:44;101495.25;;;21.63;70.18
13593;BME280;6867;50.998;4.250;2023-06-22T05:16:11;101511.25;;;21.87;70.26
13593;BME280;6867;50.998;4.250;2023-06-22T05:18:38;101513.19;;;21.92;69.87
13593;BME280;6867;50.998;4.250;2023-06-22T05:21:04;101506.41;;;22.04;70.06
13593;BME280;6867;50.998;4.250;2023-06-22T05:23:31;101509.03;;;22.36;69.62
13593;BME280;6867;50.998;4.250;2023-06-22T05:25:59;101505.78;;;22.50;69.22
13593;BME280;6867;50.998;4.250;2023-06-22T05:28:26;101498.44;;;22.71;68.48
13593;BME280;6867;50.998;4.250;2023-06-22T05:30:52;101500.94;;;22.87;68.12
13593;BME280;6867;50.998;4.250;2023-06-22T05:33:19;101485.56;;;22.76;66.62
13593;BME280;6867;50.998;4.250;2023-06-22T05:35:46;101485.03;;;22.79;66.38
13593;BME280;6867;50.998;4.250;2023-06-22T05:38:13;101487.25;;;22.87;66.06
13593;BME280;6867;50.998;4.250;2023-06-22T05:40:40;101477.69;;;22.95;65.75
13593;BME280;6867;50.998;4.250;2023-06-22T05:43:08;101484.00;;;22.96;66.31
13593;BME280;6867;50.998;4.250;2023-06-22T05:45:35;101482.91;;;22.92;66.77
13593;BME280;6867;50.998;4.250;2023-06-22T05:48:01;101479.88;;;23.14;66.08
13593;BME280;6867;50.998;4.250;2023-06-22T05:50:28;101470.28;;;23.26;65.28
13593;BME280;6867;50.998;4.250;2023-06-22T05:52:55;101478.50;;;23.21;65.93
13593;BME280;6867;50.998;4.250;2023-06-22T05:55:22;101481.78;;;23.33;66.29
13593;BME280;6867;50.998;4.250;2023-06-22T05:57:48;101485.06;;;23.30;66.22
13593;BME280;6867;50.998;4.250;2023-06-22T06:00:17;101469.44;;;23.16;65.29
13593;BME280;6867;50.998;4.250;2023-06-22T06:02:44;101467.81;;;23.09;65.20
13593;BME280;6867;50.998;4.250;2023-06-22T06:05:11;101465.63;;;23.22;65.64
13593;BME280;6867;50.998;4.250;2023-06-22T06:07:39;101457.97;;;23.08;64.80
13593;BME280;6867;50.998;4.250;2023-06-22T06:10:06;101453.56;;;22.97;64.44
13593;BME280;6867;50.998;4.250;2023-06-22T06:12:33;101444.81;;;22.90;64.68
13593;BME280;6867;50.998;4.250;2023-06-22T06:15:00;101448.91;;;22.98;64.71
13593;BME280;6867;50.998;4.250;2023-06-22T06:17:28;101470.28;;;23.06;65.71
13593;BME280;6867;50.998;4.250;2023-06-22T06:19:55;101451.63;;;23.23;65.40
13593;BME280;6867;50.998;4.250;2023-06-22T06:22:21;101451.41;;;22.99;65.56
13593;BME280;6867;50.998;4.250;2023-06-22T06:24:49;101448.38;;;22.96;65.74
13593;BME280;6867;50.998;4.250;2023-06-22T06:27:16;101439.88;;;22.97;65.31
13593;BME280;6867;50.998;4.250;2023-06-22T06:29:44;101436.84;;;22.94;65.53
13593;BME280;6867;50.998;4.250;2023-06-22T06:32:13;101428.31;;;22.70;65.90
13593;BME280;6867;50.998;4.250;2023-06-22T06:34:41;101439.84;;;22.77;66.39
13593;BME280;6867;50.998;4.250;2023-06-22T06:37:09;101437.97;;;22.93;66.65
13593;BME280;6867;50.998;4.250;2023-06-22T06:39:35;101435.75;;;23.15;66.34
13593;BME280;6867;50.998;4.250;2023-06-22T06:42:02;101419.31;;;23.25;65.60
13593;BME280;6867;50.998;4.250;2023-06-22T06:44:29;101412.44;;;23.33;65.36
13593;BME280;6867;50.998;4.250;2023-06-22T06:46:56;101410.50;;;23.39;65.29
13593;BME280;6867;50.998;4.250;2023-06-22T06:49:22;101408.81;;;23.58;65.21
13593;BME280;6867;50.998;4.250;2023-06-22T06:51:51;101403.06;;;23.44;65.31
13593;BME280;6867;50.998;4.250;2023-06-22T06:54:17;101401.09;;;23.60;64.65
13593;BME280;6867;50.998;4.250;2023-06-22T06:56:46;101402.78;;;23.51;65.06
13593;BME280;6867;50.998;4.250;2023-06-22T06:59:13;101409.03;;;23.61;65.36
13593;BME280;6867;50.998;4.250;2023-06-22T07:01:40;101408.78;;;23.68;65.26
13593;BME280;6867;50.998;4.250;2023-06-22T07:04:07;101415.91;;;23.69;65.47
13593;BME280;6867;50.998;4.250;2023-06-22T07:06:34;101410.41;;;23.74;65.19
13593;BME280;6867;50.998;4.250;2023-06-22T07:09:02;101400.78;;;23.87;64.81
13593;BME280;6867;50.998;4.250;2023-06-22T07:11:29;101399.59;;;23.98;65.00
13593;BME280;6867;50.998;4.250;2023-06-22T07:13:56;101390.97;;;24.20;64.74
13593;BME280;6867;50.998;4.250;2023-06-22T07:16:22;101387.28;;;24.40;64.29
13593;BME280;6867;50.998;4.250;2023-06-22T07:18:51;101370.41;;;24.57;63.47
13593;BME280;6867;50.998;4.250;2023-06-22T07:21:17;101364.00;;;24.72;63.23
13593;BME280;6867;50.998;4.250;2023-06-22T07:23:44;101338.03;;;25.12;61.48
13593;BME280;6867;50.998;4.250;2023-06-22T07:26:12;101325.75;;;25.52;60.62
13593;BME280;6867;50.998;4.250;2023-06-22T07:28:39;101315.50;;;26.01;59.51
13593;BME280;6867;50.998;4.250;2023-06-22T07:31:06;101298.16;;;26.52;58.04
13593;BME280;6867;50.998;4.250;2023-06-22T07:33:33;101281.59;;;26.85;56.97
13593;BME280;6867;50.998;4.250;2023-06-22T07:35:59;101250.25;;;27.08;55.56
13593;BME280;6867;50.998;4.250;2023-06-22T07:38:26;101247.00;;;26.92;54.74
13593;BME280;6867;50.998;4.250;2023-06-22T07:40:53;101262.91;;;26.81;55.11
13593;BME280;6867;50.998;4.250;2023-06-22T07:43:21;101254.75;;;26.90;54.67
13593;BME280;6867;50.998;4.250;2023-06-22T07:45:50;101243.50;;;26.73;54.37
13593;BME280;6867;50.998;4.250;2023-06-22T07:48:20;101259.34;;;26.67;54.84
13593;BME280;6867;50.998;4.250;2023-06-22T07:50:46;101260.25;;;26.76;54.84
13593;BME280;6867;50.998;4.250;2023-06-22T07:53:13;101255.03;;;26.75;54.46
13593;BME280;6867;50.998;4.250;2023-06-22T07:55:40;101263.50;;;26.65;54.51
13593;BME280;6867;50.998;4.250;2023-06-22T07:58:06;101256.31;;;26.50;54.78
13593;BME280;6867;50.998;4.250;2023-06-22T08:00:34;101269.88;;;26.14;55.24
13593;BME280;6867;50.998;4.250;2023-06-22T08:03:01;101271.59;;;25.91;55.78
13593;BME280;6867;50.998;4.250;2023-06-22T08:05:28;101294.53;;;25.62;56.33
13593;BME280;6867;50.998;4.250;2023-06-22T08:07:55;101277.44;;;25.65;56.36
13593;BME280;6867;50.998;4.250;2023-06-22T08:10:22;101292.63;;;25.63;56.52
13593;BME280;6867;50.998;4.250;2023-06-22T08:12:49;101269.22;;;25.84;55.50
13593;BME280;6867;50.998;4.250;2023-06-22T08:15:17;101261.06;;;26.12;54.84
13593;BME280;6867;50.998;4.250;2023-06-22T08:17:45;101262.34;;;26.19;54.97
13593;BME280;6867;50.998;4.250;2023-06-22T08:20:11;101233.53;;;26.12;53.93
13593;BME280;6867;50.998;4.250;2023-06-22T08:22:38;101237.88;;;25.99;53.62
13593;BME280;6867;50.998;4.250;2023-06-22T08:25:06;101218.34;;;26.00;53.27
13593;BME280;6867;50.998;4.250;2023-06-22T08:27:33;101230.16;;;26.01;53.45
13593;BME280;6867;50.998;4.250;2023-06-22T08:30:01;101237.63;;;25.81;54.04
13593;BME280;6867;50.998;4.250;2023-06-22T08:32:28;101254.50;;;25.94;54.46
13593;BME280;6867;50.998;4.250;2023-06-22T08:34:56;101266.72;;;25.88;54.85
13593;BME280;6867;50.998;4.250;2023-06-22T08:37:23;101255.59;;;25.74;54.78
13593;BME280;6867;50.998;4.250;2023-06-22T08:39:56;101240.66;;;25.42;53.95
13593;BME280;6867;50.998;4.250;2023-06-22T08:42:22;101245.53;;;25.26;54.74
13593;BME280;6867;50.998;4.250;2023-06-22T08:44:51;101241.69;;;24.74;55.53
13593;BME280;6867;50.998;4.250;2023-06-22T08:47:18;101274.72;;;24.69;56.76
13593;BME280;6867;50.998;4.250;2023-06-22T08:49:44;101269.13;;;25.08;56.54
13593;BME280;6867;50.998;4.250;2023-06-22T08:52:14;101263.13;;;25.25;56.23
13593;BME280;6867;50.998;4.250;2023-06-22T08:54:40;101268.38;;;25.46;55.93
13593;BME280;6867;50.998;4.250;2023-06-22T08:57:07;101250.69;;;25.52;55.31
13593;BME280;6867;50.998;4.250;2023-06-22T08:59:34;101284.09;;;25.40;56.39
13593;BME280;6867;50.998;4.250;2023-06-22T09:02:00;101261.41;;;25.05;55.66
13593;BME280;6867;50.998;4.250;2023-06-22T09:04:27;101289.94;;;24.85;56.90
13593;BME280;6867;50.998;4.250;2023-06-22T09:06:54;101299.47;;;24.93;57.06
13593;BME280;6867;50.998;4.250;2023-06-22T09:09:22;101313.84;;;25.14;57.49
13593;BME280;6867;50.998;4.250;2023-06-22T09:11:49;101319.91;;;25.11;57.41
13593;BME280;6867;50.998;4.250;2023-06-22T09:14:15;101358.72;;;25.04;59.21
13593;BME280;6867;50.998;4.250;2023-06-22T09:16:42;101336.44;;;25.06;58.45
13593;BME280;6867;50.998;4.250;2023-06-22T09:19:09;101324.09;;;25.08;58.56
13593;BME280;6867;50.998;4.250;2023-06-22T09:21:36;101336.84;;;24.94;58.72
13593;BME280;6867;50.998;4.250;2023-06-22T09:24:03;101352.03;;;24.87;59.55
13593;BME280;6867;50.998;4.250;2023-06-22T09:26:32;101338.78;;;24.94;59.33
13593;BME280;6867;50.998;4.250;2023-06-22T09:28:58;101347.75;;;25.04;59.43
13593;BME280;6867;50.998;4.250;2023-06-22T09:31:25;101355.66;;;25.11;59.18
13593;BME280;6867;50.998;4.250;2023-06-22T09:33:52;101329.75;;;25.17;57.82
13593;BME280;6867;50.998;4.250;2023-06-22T09:36:19;101341.63;;;25.37;58.13
13593;BME280;6867;50.998;4.250;2023-06-22T09:38:48;101371.56;;;25.14;59.07
13593;BME280;6867;50.998;4.250;2023-06-22T09:41:21;101406.56;;;25.08;60.50
13593;BME280;6867;50.998;4.250;2023-06-22T09:43:49;101421.63;;;25.11;61.34
13593;BME280;6867;50.998;4.250;2023-06-22T09:46:16;101418.34;;;25.04;61.41
13593;BME280;6867;50.998;4.250;2023-06-22T09:48:42;101401.97;;;24.94;60.32
13593;BME280;6867;50.998;4.250;2023-06-22T09:51:09;101418.00;;;24.81;60.95
13593;BME280;6867;50.998;4.250;2023-06-22T09:53:36;101467.13;;;24.49;63.56
13593;BME280;6867;50.998;4.250;2023-06-22T09:56:03;101484.28;;;24.25;65.66
13593;BME280;6867;50.998;4.250;2023-06-22T09:58:31;101490.97;;;24.04;66.72
13593;BME280;6867;50.998;4.250;2023-06-22T10:00:59;101495.69;;;23.78;67.85
13593;BME280;6867;50.998;4.250;2023-06-22T10:03:26;101499.31;;;23.48;68.93
13593;BME280;6867;50.998;4.250;2023-06-22T10:05:53;101510.28;;;22.97;71.79
13593;BME280;6867;50.998;4.250;2023-06-22T10:08:19;101500.09;;;22.77;72.35
13593;BME280;6867;50.998;4.250;2023-06-22T10:10:46;101524.44;;;22.58;74.27
13593;BME280;6867;50.998;4.250;2023-06-22T10:13:13;101524.66;;;22.46;75.72
13593;BME280;6867;50.998;4.250;2023-06-22T10:15:40;101533.69;;;22.36;77.76
13593;BME280;6867;50.998;4.250;2023-06-22T10:18:08;101550.56;;;22.23;80.92
13593;BME280;6867;50.998;4.250;2023-06-22T10:20:35;101545.91;;;22.19;82.04
13593;BME280;6867;50.998;4.250;2023-06-22T10:23:01;101536.03;;;22.12;81.58
13593;BME280;6867;50.998;4.250;2023-06-22T10:25:28;101545.22;;;21.96;84.07
13593;BME280;6867;50.998;4.250;2023-06-22T10:27:55;101542.75;;;21.95;85.36
13593;BME280;6867;50.998;4.250;2023-06-22T10:30:22;101541.66;;;21.96;85.90
13593;BME280;6867;50.998;4.250;2023-06-22T10:32:49;101523.63;;;22.00;85.09
13593;BME280;6867;50.998;4.250;2023-06-22T10:35:17;101493.59;;;21.62;83.78
13593;BME280;6867;50.998;4.250;2023-06-22T10:37:45;101500.03;;;21.41;82.99
13593;BME280;6867;50.998;4.250;2023-06-22T10:40:13;101499.63;;;20.95;83.82
13593;BME280;6867;50.998;4.250;2023-06-22T10:42:40;101496.34;;;20.66;85.13
13593;BME280;6867;50.998;4.250;2023-06-22T10:45:08;101509.53;;;20.52;86.64
13593;BME280;6867;50.998;4.250;2023-06-22T10:47:35;101488.44;;;20.48;86.93
13593;BME280;6867;50.998;4.250;2023-06-22T10:50:02;101479.06;;;20.38;87.07
13593;BME280;6867;50.998;4.250;2023-06-22T10:52:31;101461.69;;;20.45;88.17
13593;BME280;6867;50.998;4.250;2023-06-22T10:54:57;101449.81;;;20.56;88.13
13593;BME280;6867;50.998;4.250;2023-06-22T10:57:24;101431.84;;;20.60;87.69
13593;BME280;6867;50.998;4.250;2023-06-22T10:59:51;101429.78;;;20.72;88.15
13593;BME280;6867;50.998;4.250;2023-06-22T11:02:17;101429.13;;;20.60;88.87
13593;BME280;6867;50.998;4.250;2023-06-22T11:04:44;101417.72;;;20.68;88.58
13593;BME280;6867;50.998;4.250;2023-06-22T11:07:11;101406.81;;;20.41;89.70
13593;BME280;6867;50.998;4.250;2023-06-22T11:09:39;101410.88;;;20.98;89.57
13593;BME280;6867;50.998;4.250;2023-06-22T11:12:06;101403.63;;;21.13;88.83
13593;BME280;6867;50.998;4.250;2023-06-22T11:14:33;101385.00;;;21.10;88.41
13593;BME280;6867;50.998;4.250;2023-06-22T11:17:00;101368.53;;;20.95;88.28
13593;BME280;6867;50.998;4.250;2023-06-22T11:19:27;101381.16;;;20.69;89.42
13593;BME280;6867;50.998;4.250;2023-06-22T11:21:53;101374.34;;;21.09;89.52
13593;BME280;6867;50.998;4.250;2023-06-22T11:24:20;101375.44;;;21.03;90.35
13593;BME280;6867;50.998;4.250;2023-06-22T11:26:48;101363.47;;;21.19;89.67
13593;BME280;6867;50.998;4.250;2023-06-22T11:29:15;101362.06;;;21.49;89.45
13593;BME280;6867;50.998;4.250;2023-06-22T11:31:42;101357.41;;;21.49;89.13
13593;BME280;6867;50.998;4.250;2023-06-22T11:34:09;101347.59;;;21.53;87.68
13593;BME280;6867;50.998;4.250;2023-06-22T11:36:36;101352.19;;;21.43;87.52
13593;BME280;6867;50.998;4.250;2023-06-22T11:39:03;101337.47;;;21.54;87.25
13593;BME280;6867;50.998;4.250;2023-06-22T11:41:30;101348.66;;;21.52;87.55
13593;BME280;6867;50.998;4.250;2023-06-22T11:43:58;101353.66;;;21.18;88.88
13593;BME280;6867;50.998;4.250;2023-06-22T11:46:25;101349.66;;;21.36;88.66
13593;BME280;6867;50.998;4.250;2023-06-22T11:48:51;101355.84;;;21.21;89.80
13593;BME280;6867;50.998;4.250;2023-06-22T11:51:18;101356.91;;;21.15;90.11
13593;BME280;6867;50.998;4.250;2023-06-22T11:53:45;101361.50;;;21.47;89.64
13593;BME280;6867;50.998;4.250;2023-06-22T11:56:12;101351.44;;;21.15;88.84
13593;BME280;6867;50.998;4.250;2023-06-22T11:58:38;101366.19;;;21.14;89.15
13593;BME280;6867;50.998;4.250;2023-06-22T12:01:06;101362.44;;;21.25;88.44
13593;BME280;6867;50.998;4.250;2023-06-22T12:03:33;101376.50;;;21.44;88.80
13593;BME280;6867;50.998;4.250;2023-06-22T12:06:00;101370.81;;;21.51;88.70
13593;BME280;6867;50.998;4.250;2023-06-22T12:08:26;101365.66;;;21.59;88.99
13593;BME280;6867;50.998;4.250;2023-06-22T12:10:53;101366.44;;;21.50;88.58
13593;BME280;6867;50.998;4.250;2023-06-22T12:13:20;101373.88;;;21.22;89.00
13593;BME280;6867;50.998;4.250;2023-06-22T12:15:46;101360.16;;;21.49;88.74
13593;BME280;6867;50.998;4.250;2023-06-22T12:18:18;101352.75;;;21.50;88.47
13593;BME280;6867;50.998;4.250;2023-06-22T12:20:46;101360.97;;;21.55;87.55
13593;BME280;6867;50.998;4.250;2023-06-22T12:23:12;101360.97;;;21.55;88.73
13593;BME280;6867;50.998;4.250;2023-06-22T12:25:39;101365.28;;;21.41;88.83
13593;BME280;6867;50.998;4.250;2023-06-22T12:28:06;101368.69;;;21.73;88.54
13593;BME280;6867;50.998;4.250;2023-06-22T12:30:33;101363.75;;;21.65;88.05
13593;BME280;6867;50.998;4.250;2023-06-22T12:32:59;101371.69;;;21.61;88.06
13593;BME280;6867;50.998;4.250;2023-06-22T12:35:27;101369.19;;;21.60;87.99
13593;BME280;6867;50.998;4.250;2023-06-22T12:37:54;101366.16;;;21.56;88.08
13593;BME280;6867;50.998;4.250;2023-06-22T12:40:21;101367.59;;;21.69;88.47
13593;BME280;6867;50.998;4.250;2023-06-22T12:42:48;101367.03;;;21.67;88.55
13593;BME280;6867;50.998;4.250;2023-06-22T12:45:15;101363.09;;;21.43;88.65
13593;BME280;6867;50.998;4.250;2023-06-22T12:47:41;101374.13;;;21.58;88.99
13593;BME280;6867;50.998;4.250;2023-06-22T12:50:08;101372.75;;;21.60;89.16
13593;BME280;6867;50.998;4.250;2023-06-22T12:52:39;101366.44;;;21.55;89.12
13593;BME280;6867;50.998;4.250;2023-06-22T12:55:07;101373.81;;;21.54;89.47
13593;BME280;6867;50.998;4.250;2023-06-22T12:57:33;101375.69;;;21.44;89.22
13593;BME280;6867;50.998;4.250;2023-06-22T13:00:00;101373.53;;;21.51;89.63
13593;BME280;6867;50.998;4.250;2023-06-22T13:02:27;101371.81;;;21.39;89.70